sensor_id;sensor_type;location;lat;lon;timestamp;P1;durP1;ratioP1;P2;durP2;ratioP2
74309;SDS011;62722;51.142;17.052;2023-03-23T00:00:44;20.65;;;10.15;;
74309;SDS011;62722;51.142;17.052;2023-03-23T00:04:30;19.20;;;9.77;;
74309;SDS011;62722;51.142;17.052;2023-03-23T00:07:21;20.52;;;10.48;;
74309;SDS011;62722;51.142;17.052;2023-03-23T00:09:58;19.67;;;10.52;;
74309;SDS011;62722;51.142;17.052;2023-03-23T00:14:59;20.58;;;10.13;;
74309;SDS011;62722;51.142;17.052;2023-03-23T00:17:28;18.75;;;9.68;;
74309;SDS011;62722;51.142;17.052;2023-03-23T00:19:55;20.08;;;9.73;;
74309;SDS011;62722;51.142;17.052;2023-03-23T00:22:23;22.63;;;10.38;;
74309;SDS011;62722;51.142;17.052;2023-03-23T00:24:54;16.65;;;9.57;;
74309;SDS011;62722;51.142;17.052;2023-03-23T00:27:23;20.23;;;10.52;;
74309;SDS011;62722;51.142;17.052;2023-03-23T00:29:51;19.27;;;10.30;;
74309;SDS011;62722;51.142;17.052;2023-03-23T00:32:19;20.50;;;10.73;;
74309;SDS011;62722;51.142;17.052;2023-03-23T00:34:52;20.75;;;10.60;;
74309;SDS011;62722;51.142;17.052;2023-03-23T00:37:20;18.20;;;10.63;;
74309;SDS011;62722;51.142;17.052;2023-03-23T00:39:50;22.33;;;10.35;;
74309;SDS011;62722;51.142;17.052;2023-03-23T00:42:17;21.67;;;10.50;;
74309;SDS011;62722;51.142;17.052;2023-03-23T00:44:46;21.75;;;11.85;;
74309;SDS011;62722;51.142;17.052;2023-03-23T00:47:14;19.13;;;9.57;;
74309;SDS011;62722;51.142;17.052;2023-03-23T00:49:42;19.02;;;10.75;;
74309;SDS011;62722;51.142;17.052;2023-03-23T00:52:10;18.45;;;10.30;;
74309;SDS011;62722;51.142;17.052;2023-03-23T00:54:37;19.73;;;10.73;;
74309;SDS011;62722;51.142;17.052;2023-03-23T00:57:05;19.17;;;11.15;;
74309;SDS011;62722;51.142;17.052;2023-03-23T00:59:32;21.13;;;10.43;;
74309;SDS011;62722;51.142;17.052;2023-03-23T01:02:01;17.98;;;10.25;;
74309;SDS011;62722;51.142;17.052;2023-03-23T01:04:28;18.98;;;10.32;;
74309;SDS011;62722;51.142;17.052;2023-03-23T01:06:57;18.63;;;10.15;;
74309;SDS011;62722;51.142;17.052;2023-03-23T01:09:25;25.20;;;11.57;;
74309;SDS011;62722;51.142;17.052;2023-03-23T01:11:53;23.45;;;11.30;;
74309;SDS011;62722;51.142;17.052;2023-03-23T01:14:22;21.10;;;10.30;;
74309;SDS011;62722;51.142;17.052;2023-03-23T01:16:51;24.63;;;11.32;;
74309;SDS011;62722;51.142;17.052;2023-03-23T01:19:19;24.15;;;11.27;;
74309;SDS011;62722;51.142;17.052;2023-03-23T01:21:47;23.88;;;11.75;;
74309;SDS011;62722;51.142;17.052;2023-03-23T01:24:14;26.85;;;12.73;;
74309;SDS011;62722;51.142;17.052;2023-03-23T01:26:41;22.83;;;11.63;;
74309;SDS011;62722;51.142;17.052;2023-03-23T01:29:09;26.88;;;13.02;;
74309;SDS011;62722;51.142;17.052;2023-03-23T01:31:36;23.52;;;11.88;;
74309;SDS011;62722;51.142;17.052;2023-03-23T01:34:03;21.73;;;11.07;;
74309;SDS011;62722;51.142;17.052;2023-03-23T01:36:32;22.90;;;10.00;;
74309;SDS011;62722;51.142;17.052;2023-03-23T01:39:00;18.90;;;10.25;;
74309;SDS011;62722;51.142;17.052;2023-03-23T01:41:29;19.80;;;10.23;;
74309;SDS011;62722;51.142;17.052;2023-03-23T01:43:58;24.73;;;10.88;;
74309;SDS011;62722;51.142;17.052;2023-03-23T01:46:29;18.02;;;9.77;;
74309;SDS011;62722;51.142;17.052;2023-03-23T01:48:57;19.70;;;10.07;;
74309;SDS011;62722;51.142;17.052;2023-03-23T01:51:34;24.23;;;12.32;;
74309;SDS011;62722;51.142;17.052;2023-03-23T01:54:04;25.55;;;12.40;;
74309;SDS011;62722;51.142;17.052;2023-03-23T01:56:35;22.48;;;10.38;;
74309;SDS011;62722;51.142;17.052;2023-03-23T01:59:10;21.73;;;10.40;;
74309;SDS011;62722;51.142;17.052;2023-03-23T02:01:39;25.05;;;12.27;;
74309;SDS011;62722;51.142;17.052;2023-03-23T02:04:10;17.90;;;10.40;;
74309;SDS011;62722;51.142;17.052;2023-03-23T02:06:41;17.30;;;9.40;;
74309;SDS011;62722;51.142;17.052;2023-03-23T02:09:09;17.42;;;9.10;;
74309;SDS011;62722;51.142;17.052;2023-03-23T02:11:39;16.33;;;8.80;;
74309;SDS011;62722;51.142;17.052;2023-03-23T02:14:06;17.52;;;9.23;;
74309;SDS011;62722;51.142;17.052;2023-03-23T02:16:34;15.77;;;8.75;;
74309;SDS011;62722;51.142;17.052;2023-03-23T02:19:17;18.85;;;8.38;;
74309;SDS011;62722;51.142;17.052;2023-03-23T02:22:10;18.88;;;9.75;;
74309;SDS011;62722;51.142;17.052;2023-03-23T02:31:00;16.92;;;8.23;;
74309;SDS011;62722;51.142;17.052;2023-03-23T02:33:51;15.45;;;7.78;;
74309;SDS011;62722;51.142;17.052;2023-03-23T02:36:23;17.63;;;8.00;;
74309;SDS011;62722;51.142;17.052;2023-03-23T02:38:57;13.07;;;7.10;;
74309;SDS011;62722;51.142;17.052;2023-03-23T02:41:31;13.73;;;7.47;;
74309;SDS011;62722;51.142;17.052;2023-03-23T02:44:04;16.30;;;8.00;;
74309;SDS011;62722;51.142;17.052;2023-03-23T02:46:33;13.68;;;6.93;;
74309;SDS011;62722;51.142;17.052;2023-03-23T02:49:05;13.90;;;6.85;;
74309;SDS011;62722;51.142;17.052;2023-03-23T02:51:35;15.85;;;7.88;;
74309;SDS011;62722;51.142;17.052;2023-03-23T02:54:05;13.27;;;7.15;;
74309;SDS011;62722;51.142;17.052;2023-03-23T02:56:34;17.25;;;7.75;;
74309;SDS011;62722;51.142;17.052;2023-03-23T02:59:02;16.30;;;7.95;;
74309;SDS011;62722;51.142;17.052;2023-03-23T03:01:46;14.40;;;7.45;;
74309;SDS011;62722;51.142;17.052;2023-03-23T03:04:20;16.33;;;7.97;;
74309;SDS011;62722;51.142;17.052;2023-03-23T03:06:54;13.82;;;7.13;;
74309;SDS011;62722;51.142;17.052;2023-03-23T03:09:30;15.75;;;8.38;;
74309;SDS011;62722;51.142;17.052;2023-03-23T03:12:05;16.67;;;8.35;;
74309;SDS011;62722;51.142;17.052;2023-03-23T03:14:39;18.00;;;9.25;;
74309;SDS011;62722;51.142;17.052;2023-03-23T03:17:17;16.17;;;9.55;;
74309;SDS011;62722;51.142;17.052;2023-03-23T03:19:52;15.00;;;8.70;;
74309;SDS011;62722;51.142;17.052;2023-03-23T03:22:24;15.68;;;8.55;;
74309;SDS011;62722;51.142;17.052;2023-03-23T03:24:55;13.50;;;8.45;;
74309;SDS011;62722;51.142;17.052;2023-03-23T03:27:24;16.27;;;9.02;;
74309;SDS011;62722;51.142;17.052;2023-03-23T03:29:54;14.48;;;8.32;;
74309;SDS011;62722;51.142;17.052;2023-03-23T03:32:25;13.30;;;7.43;;
74309;SDS011;62722;51.142;17.052;2023-03-23T03:35:00;14.60;;;8.13;;
74309;SDS011;62722;51.142;17.052;2023-03-23T03:37:32;16.20;;;8.18;;
74309;SDS011;62722;51.142;17.052;2023-03-23T03:40:04;21.42;;;10.02;;
74309;SDS011;62722;51.142;17.052;2023-03-23T03:42:36;17.42;;;8.88;;
74309;SDS011;62722;51.142;17.052;2023-03-23T03:45:06;19.27;;;10.10;;
74309;SDS011;62722;51.142;17.052;2023-03-23T03:47:36;13.90;;;7.63;;
74309;SDS011;62722;51.142;17.052;2023-03-23T03:50:05;11.07;;;6.05;;
74309;SDS011;62722;51.142;17.052;2023-03-23T03:52:34;11.25;;;5.50;;
74309;SDS011;62722;51.142;17.052;2023-03-23T03:55:04;9.95;;;5.28;;
74309;SDS011;62722;51.142;17.052;2023-03-23T03:57:32;10.30;;;5.63;;
74309;SDS011;62722;51.142;17.052;2023-03-23T04:00:00;10.05;;;5.22;;
74309;SDS011;62722;51.142;17.052;2023-03-23T04:02:39;9.07;;;4.88;;
74309;SDS011;62722;51.142;17.052;2023-03-23T04:05:09;9.23;;;4.82;;
74309;SDS011;62722;51.142;17.052;2023-03-23T04:07:37;8.40;;;4.32;;
74309;SDS011;62722;51.142;17.052;2023-03-23T04:10:06;7.82;;;4.28;;
74309;SDS011;62722;51.142;17.052;2023-03-23T04:12:34;7.72;;;4.13;;
74309;SDS011;62722;51.142;17.052;2023-03-23T04:15:03;9.25;;;4.35;;
74309;SDS011;62722;51.142;17.052;2023-03-23T04:17:31;7.20;;;4.15;;
74309;SDS011;62722;51.142;17.052;2023-03-23T04:19:59;10.43;;;4.28;;
74309;SDS011;62722;51.142;17.052;2023-03-23T04:22:31;9.57;;;4.07;;
74309;SDS011;62722;51.142;17.052;2023-03-23T04:24:59;7.45;;;3.92;;
74309;SDS011;62722;51.142;17.052;2023-03-23T04:27:31;9.20;;;3.95;;
74309;SDS011;62722;51.142;17.052;2023-03-23T04:29:58;6.80;;;3.78;;
74309;SDS011;62722;51.142;17.052;2023-03-23T04:32:26;6.22;;;3.65;;
74309;SDS011;62722;51.142;17.052;2023-03-23T04:34:56;7.13;;;3.72;;
74309;SDS011;62722;51.142;17.052;2023-03-23T04:37:24;6.78;;;3.55;;
74309;SDS011;62722;51.142;17.052;2023-03-23T04:39:56;6.72;;;3.53;;
74309;SDS011;62722;51.142;17.052;2023-03-23T04:42:27;8.18;;;3.78;;
74309;SDS011;62722;51.142;17.052;2023-03-23T04:44:55;6.72;;;3.47;;
74309;SDS011;62722;51.142;17.052;2023-03-23T04:47:23;7.97;;;3.80;;
74309;SDS011;62722;51.142;17.052;2023-03-23T04:49:55;6.53;;;3.63;;
74309;SDS011;62722;51.142;17.052;2023-03-23T04:52:22;7.45;;;3.70;;
74309;SDS011;62722;51.142;17.052;2023-03-23T04:54:51;6.85;;;3.92;;
74309;SDS011;62722;51.142;17.052;2023-03-23T04:57:20;6.82;;;3.30;;
74309;SDS011;62722;51.142;17.052;2023-03-23T04:59:48;5.90;;;3.20;;
74309;SDS011;62722;51.142;17.052;2023-03-23T05:02:15;6.80;;;3.75;;
74309;SDS011;62722;51.142;17.052;2023-03-23T05:04:42;8.05;;;3.53;;
74309;SDS011;62722;51.142;17.052;2023-03-23T05:07:10;6.85;;;3.38;;
74309;SDS011;62722;51.142;17.052;2023-03-23T05:09:38;7.25;;;4.15;;
74309;SDS011;62722;51.142;17.052;2023-03-23T05:12:06;6.80;;;3.70;;
74309;SDS011;62722;51.142;17.052;2023-03-23T05:14:39;9.20;;;4.25;;
74309;SDS011;62722;51.142;17.052;2023-03-23T05:17:07;12.13;;;5.32;;
74309;SDS011;62722;51.142;17.052;2023-03-23T05:19:35;10.38;;;4.85;;
74309;SDS011;62722;51.142;17.052;2023-03-23T05:22:03;13.27;;;6.18;;
74309;SDS011;62722;51.142;17.052;2023-03-23T05:24:30;11.63;;;5.65;;
74309;SDS011;62722;51.142;17.052;2023-03-23T05:26:59;11.30;;;5.88;;
74309;SDS011;62722;51.142;17.052;2023-03-23T05:29:27;8.80;;;4.95;;
74309;SDS011;62722;51.142;17.052;2023-03-23T05:31:57;9.65;;;4.25;;
74309;SDS011;62722;51.142;17.052;2023-03-23T05:34:25;9.50;;;5.68;;
74309;SDS011;62722;51.142;17.052;2023-03-23T05:36:54;7.78;;;4.30;;
74309;SDS011;62722;51.142;17.052;2023-03-23T05:39:23;9.32;;;4.38;;
74309;SDS011;62722;51.142;17.052;2023-03-23T05:41:50;8.85;;;5.18;;
74309;SDS011;62722;51.142;17.052;2023-03-23T05:44:18;11.05;;;5.68;;
74309;SDS011;62722;51.142;17.052;2023-03-23T05:46:46;11.20;;;4.70;;
74309;SDS011;62722;51.142;17.052;2023-03-23T05:49:15;11.88;;;5.40;;
74309;SDS011;62722;51.142;17.052;2023-03-23T05:51:43;15.00;;;5.68;;
74309;SDS011;62722;51.142;17.052;2023-03-23T05:54:12;9.95;;;4.80;;
74309;SDS011;62722;51.142;17.052;2023-03-23T05:56:39;15.32;;;6.43;;
74309;SDS011;62722;51.142;17.052;2023-03-23T05:59:07;14.75;;;6.32;;
74309;SDS011;62722;51.142;17.052;2023-03-23T06:01:35;21.25;;;8.15;;
74309;SDS011;62722;51.142;17.052;2023-03-23T06:04:03;25.80;;;9.20;;
74309;SDS011;62722;51.142;17.052;2023-03-23T06:06:32;10.73;;;5.22;;
74309;SDS011;62722;51.142;17.052;2023-03-23T06:08:59;13.88;;;5.90;;
74309;SDS011;62722;51.142;17.052;2023-03-23T06:11:27;13.02;;;5.80;;
74309;SDS011;62722;51.142;17.052;2023-03-23T06:13:54;11.27;;;5.57;;
74309;SDS011;62722;51.142;17.052;2023-03-23T06:16:21;7.78;;;4.30;;
74309;SDS011;62722;51.142;17.052;2023-03-23T06:18:49;10.70;;;4.70;;
74309;SDS011;62722;51.142;17.052;2023-03-23T06:21:17;9.07;;;4.85;;
74309;SDS011;62722;51.142;17.052;2023-03-23T06:23:46;8.18;;;4.10;;
74309;SDS011;62722;51.142;17.052;2023-03-23T06:26:15;8.13;;;4.53;;
74309;SDS011;62722;51.142;17.052;2023-03-23T06:28:46;8.02;;;4.45;;
74309;SDS011;62722;51.142;17.052;2023-03-23T06:31:14;10.30;;;4.28;;
74309;SDS011;62722;51.142;17.052;2023-03-23T06:33:43;7.97;;;4.28;;
74309;SDS011;62722;51.142;17.052;2023-03-23T06:36:10;8.35;;;4.05;;
74309;SDS011;62722;51.142;17.052;2023-03-23T06:38:38;8.85;;;4.63;;
74309;SDS011;62722;51.142;17.052;2023-03-23T06:41:06;10.93;;;5.60;;
74309;SDS011;62722;51.142;17.052;2023-03-23T06:43:34;7.07;;;4.03;;
74309;SDS011;62722;51.142;17.052;2023-03-23T06:46:04;9.45;;;4.40;;
74309;SDS011;62722;51.142;17.052;2023-03-23T06:48:32;6.13;;;3.58;;
74309;SDS011;62722;51.142;17.052;2023-03-23T06:50:59;6.18;;;3.22;;
74309;SDS011;62722;51.142;17.052;2023-03-23T06:53:28;9.07;;;4.70;;
74309;SDS011;62722;51.142;17.052;2023-03-23T06:55:56;8.68;;;4.60;;
74309;SDS011;62722;51.142;17.052;2023-03-23T06:58:25;8.35;;;4.65;;
74309;SDS011;62722;51.142;17.052;2023-03-23T07:00:53;6.38;;;3.22;;
74309;SDS011;62722;51.142;17.052;2023-03-23T07:03:22;7.35;;;3.88;;
74309;SDS011;62722;51.142;17.052;2023-03-23T07:05:49;9.38;;;4.00;;
74309;SDS011;62722;51.142;17.052;2023-03-23T07:08:17;9.50;;;5.50;;
74309;SDS011;62722;51.142;17.052;2023-03-23T07:10:44;10.63;;;4.55;;
74309;SDS011;62722;51.142;17.052;2023-03-23T07:13:12;6.90;;;3.10;;
74309;SDS011;62722;51.142;17.052;2023-03-23T07:15:40;8.75;;;3.53;;
74309;SDS011;62722;51.142;17.052;2023-03-23T07:18:08;7.43;;;3.30;;
74309;SDS011;62722;51.142;17.052;2023-03-23T07:20:35;7.68;;;3.72;;
74309;SDS011;62722;51.142;17.052;2023-03-23T07:23:03;8.32;;;4.03;;
74309;SDS011;62722;51.142;17.052;2023-03-23T07:25:30;6.53;;;3.50;;
74309;SDS011;62722;51.142;17.052;2023-03-23T07:27:58;5.75;;;3.40;;
74309;SDS011;62722;51.142;17.052;2023-03-23T07:30:26;7.45;;;3.40;;
74309;SDS011;62722;51.142;17.052;2023-03-23T07:32:56;7.32;;;3.42;;
74309;SDS011;62722;51.142;17.052;2023-03-23T07:35:24;6.50;;;4.10;;
74309;SDS011;62722;51.142;17.052;2023-03-23T07:37:52;11.27;;;5.00;;
74309;SDS011;62722;51.142;17.052;2023-03-23T07:40:20;10.48;;;4.40;;
74309;SDS011;62722;51.142;17.052;2023-03-23T07:42:51;8.85;;;4.60;;
74309;SDS011;62722;51.142;17.052;2023-03-23T07:45:19;7.75;;;3.70;;
74309;SDS011;62722;51.142;17.052;2023-03-23T07:47:47;7.95;;;3.42;;
74309;SDS011;62722;51.142;17.052;2023-03-23T07:50:16;6.22;;;3.33;;
74309;SDS011;62722;51.142;17.052;2023-03-23T07:52:46;8.90;;;3.47;;
74309;SDS011;62722;51.142;17.052;2023-03-23T07:55:15;6.45;;;3.20;;
74309;SDS011;62722;51.142;17.052;2023-03-23T07:57:44;7.07;;;3.65;;
74309;SDS011;62722;51.142;17.052;2023-03-23T08:00:12;5.95;;;3.10;;
74309;SDS011;62722;51.142;17.052;2023-03-23T08:02:45;6.32;;;3.40;;
74309;SDS011;62722;51.142;17.052;2023-03-23T08:05:13;6.20;;;3.53;;
74309;SDS011;62722;51.142;17.052;2023-03-23T08:07:43;7.53;;;3.90;;
74309;SDS011;62722;51.142;17.052;2023-03-23T08:10:11;6.28;;;3.35;;
74309;SDS011;62722;51.142;17.052;2023-03-23T08:12:41;8.68;;;3.30;;
74309;SDS011;62722;51.142;17.052;2023-03-23T08:15:09;7.47;;;3.58;;
74309;SDS011;62722;51.142;17.052;2023-03-23T08:17:40;8.98;;;3.47;;
74309;SDS011;62722;51.142;17.052;2023-03-23T08:20:08;7.38;;;3.45;;
74309;SDS011;62722;51.142;17.052;2023-03-23T08:22:40;5.72;;;3.28;;
74309;SDS011;62722;51.142;17.052;2023-03-23T08:25:09;6.85;;;3.55;;
74309;SDS011;62722;51.142;17.052;2023-03-23T08:27:37;8.60;;;3.65;;
74309;SDS011;62722;51.142;17.052;2023-03-23T08:30:09;7.05;;;3.63;;
74309;SDS011;62722;51.142;17.052;2023-03-23T08:32:38;6.38;;;3.40;;
74309;SDS011;62722;51.142;17.052;2023-03-23T08:35:06;8.02;;;3.50;;
74309;SDS011;62722;51.142;17.052;2023-03-23T08:37:35;8.55;;;3.70;;
74309;SDS011;62722;51.142;17.052;2023-03-23T08:40:06;7.57;;;3.50;;
74309;SDS011;62722;51.142;17.052;2023-03-23T08:42:35;6.55;;;3.45;;
74309;SDS011;62722;51.142;17.052;2023-03-23T08:45:04;8.68;;;3.72;;
74309;SDS011;62722;51.142;17.052;2023-03-23T08:47:32;7.43;;;3.63;;
74309;SDS011;62722;51.142;17.052;2023-03-23T08:50:00;5.65;;;3.00;;
74309;SDS011;62722;51.142;17.052;2023-03-23T08:52:28;4.82;;;2.67;;
74309;SDS011;62722;51.142;17.052;2023-03-23T08:54:55;5.68;;;2.55;;
74309;SDS011;62722;51.142;17.052;2023-03-23T08:57:24;4.68;;;2.58;;
74309;SDS011;62722;51.142;17.052;2023-03-23T08:59:52;4.53;;;2.33;;
74309;SDS011;62722;51.142;17.052;2023-03-23T09:02:23;5.68;;;2.60;;
74309;SDS011;62722;51.142;17.052;2023-03-23T09:04:50;6.53;;;2.72;;
74309;SDS011;62722;51.142;17.052;2023-03-23T09:07:18;4.90;;;2.35;;
74309;SDS011;62722;51.142;17.052;2023-03-23T09:09:46;4.85;;;2.45;;
74309;SDS011;62722;51.142;17.052;2023-03-23T09:12:13;6.95;;;2.70;;
74309;SDS011;62722;51.142;17.052;2023-03-23T09:14:42;7.15;;;2.85;;
74309;SDS011;62722;51.142;17.052;2023-03-23T09:17:10;4.00;;;2.28;;
74309;SDS011;62722;51.142;17.052;2023-03-23T09:19:37;5.97;;;2.50;;
74309;SDS011;62722;51.142;17.052;2023-03-23T09:22:05;6.13;;;2.40;;
74309;SDS011;62722;51.142;17.052;2023-03-23T09:24:33;6.40;;;3.00;;
74309;SDS011;62722;51.142;17.052;2023-03-23T09:27:01;3.92;;;2.40;;
74309;SDS011;62722;51.142;17.052;2023-03-23T09:29:28;7.05;;;3.05;;
74309;SDS011;62722;51.142;17.052;2023-03-23T09:31:57;4.95;;;2.63;;
74309;SDS011;62722;51.142;17.052;2023-03-23T09:34:25;5.90;;;2.40;;
74309;SDS011;62722;51.142;17.052;2023-03-23T09:36:55;5.50;;;2.22;;
74309;SDS011;62722;51.142;17.052;2023-03-23T09:39:22;4.20;;;2.15;;
74309;SDS011;62722;51.142;17.052;2023-03-23T09:41:54;4.65;;;2.25;;
74309;SDS011;62722;51.142;17.052;2023-03-23T09:44:35;3.50;;;2.22;;
74309;SDS011;62722;51.142;17.052;2023-03-23T09:47:14;4.45;;;2.25;;
74309;SDS011;62722;51.142;17.052;2023-03-23T09:49:48;4.40;;;2.28;;
74309;SDS011;62722;51.142;17.052;2023-03-23T09:52:20;6.13;;;2.42;;
74309;SDS011;62722;51.142;17.052;2023-03-23T09:54:50;4.00;;;2.00;;
74309;SDS011;62722;51.142;17.052;2023-03-23T09:57:22;4.55;;;2.00;;
74309;SDS011;62722;51.142;17.052;2023-03-23T09:59:56;4.93;;;1.73;;
74309;SDS011;62722;51.142;17.052;2023-03-23T10:02:33;3.58;;;1.85;;
74309;SDS011;62722;51.142;17.052;2023-03-23T10:05:15;3.35;;;1.60;;
74309;SDS011;62722;51.142;17.052;2023-03-23T10:07:57;2.42;;;1.30;;
74309;SDS011;62722;51.142;17.052;2023-03-23T10:10:29;2.65;;;1.50;;
74309;SDS011;62722;51.142;17.052;2023-03-23T10:13:04;2.72;;;1.33;;
74309;SDS011;62722;51.142;17.052;2023-03-23T10:15:42;2.90;;;1.52;;
74309;SDS011;62722;51.142;17.052;2023-03-23T10:18:15;2.67;;;1.40;;
74309;SDS011;62722;51.142;17.052;2023-03-23T10:20:47;2.42;;;1.30;;
74309;SDS011;62722;51.142;17.052;2023-03-23T10:26:25;2.75;;;1.40;;
74309;SDS011;62722;51.142;17.052;2023-03-23T10:28:59;2.72;;;1.38;;
74309;SDS011;62722;51.142;17.052;2023-03-23T10:31:39;3.25;;;1.38;;
74309;SDS011;62722;51.142;17.052;2023-03-23T10:34:15;2.58;;;1.15;;
74309;SDS011;62722;51.142;17.052;2023-03-23T10:36:51;4.75;;;1.05;;
74309;SDS011;62722;51.142;17.052;2023-03-23T10:39:24;1.88;;;1.10;;
74309;SDS011;62722;51.142;17.052;2023-03-23T10:41:56;2.10;;;0.90;;
74309;SDS011;62722;51.142;17.052;2023-03-23T10:44:28;2.42;;;1.00;;
74309;SDS011;62722;51.142;17.052;2023-03-23T10:46:58;2.92;;;1.08;;
74309;SDS011;62722;51.142;17.052;2023-03-23T10:49:30;1.80;;;1.00;;
74309;SDS011;62722;51.142;17.052;2023-03-23T10:52:02;4.63;;;1.30;;
74309;SDS011;62722;51.142;17.052;2023-03-23T10:54:35;2.15;;;1.15;;
74309;SDS011;62722;51.142;17.052;2023-03-23T10:57:12;2.83;;;1.20;;
74309;SDS011;62722;51.142;17.052;2023-03-23T10:59:47;4.18;;;1.30;;
74309;SDS011;62722;51.142;17.052;2023-03-23T11:02:16;2.47;;;1.17;;
74309;SDS011;62722;51.142;17.052;2023-03-23T11:04:53;3.60;;;1.30;;
74309;SDS011;62722;51.142;17.052;2023-03-23T11:07:26;2.20;;;1.00;;
74309;SDS011;62722;51.142;17.052;2023-03-23T11:09:56;2.22;;;1.20;;
74309;SDS011;62722;51.142;17.052;2023-03-23T11:12:34;5.05;;;1.20;;
74309;SDS011;62722;51.142;17.052;2023-03-23T11:15:14;3.47;;;1.48;;
74309;SDS011;62722;51.142;17.052;2023-03-23T11:17:57;3.08;;;1.20;;
74309;SDS011;62722;51.142;17.052;2023-03-23T11:20:28;2.05;;;1.05;;
74309;SDS011;62722;51.142;17.052;2023-03-23T11:23:01;3.53;;;1.33;;
74309;SDS011;62722;51.142;17.052;2023-03-23T11:25:49;1.98;;;1.00;;
74309;SDS011;62722;51.142;17.052;2023-03-23T11:28:20;2.40;;;1.13;;
74309;SDS011;62722;51.142;17.052;2023-03-23T11:30:47;3.08;;;1.13;;
74309;SDS011;62722;51.142;17.052;2023-03-23T11:33:15;2.50;;;1.10;;
74309;SDS011;62722;51.142;17.052;2023-03-23T11:35:44;4.10;;;1.30;;
74309;SDS011;62722;51.142;17.052;2023-03-23T11:38:15;3.17;;;1.23;;
74309;SDS011;62722;51.142;17.052;2023-03-23T11:40:47;3.40;;;1.35;;
74309;SDS011;62722;51.142;17.052;2023-03-23T11:43:18;2.38;;;1.10;;
74309;SDS011;62722;51.142;17.052;2023-03-23T11:45:48;3.03;;;1.08;;
74309;SDS011;62722;51.142;17.052;2023-03-23T11:48:20;3.00;;;1.30;;
74309;SDS011;62722;51.142;17.052;2023-03-23T11:50:55;2.88;;;1.30;;
74309;SDS011;62722;51.142;17.052;2023-03-23T11:53:30;2.92;;;1.50;;
74309;SDS011;62722;51.142;17.052;2023-03-23T11:56:07;3.80;;;2.28;;
74309;SDS011;62722;51.142;17.052;2023-03-23T11:58:39;2.60;;;1.25;;
74309;SDS011;62722;51.142;17.052;2023-03-23T12:01:10;3.50;;;1.48;;
74309;SDS011;62722;51.142;17.052;2023-03-23T12:03:53;2.47;;;1.10;;
74309;SDS011;62722;51.142;17.052;2023-03-23T12:06:45;2.97;;;1.35;;
74309;SDS011;62722;51.142;17.052;2023-03-23T12:09:23;3.28;;;1.30;;
74309;SDS011;62722;51.142;17.052;2023-03-23T12:12:04;2.40;;;1.27;;
74309;SDS011;62722;51.142;17.052;2023-03-23T12:14:40;2.72;;;1.17;;
74309;SDS011;62722;51.142;17.052;2023-03-23T12:17:17;3.58;;;1.83;;
74309;SDS011;62722;51.142;17.052;2023-03-23T12:19:55;3.42;;;1.75;;
74309;SDS011;62722;51.142;17.052;2023-03-23T12:22:40;3.85;;;1.52;;
74309;SDS011;62722;51.142;17.052;2023-03-23T12:25:20;2.58;;;1.50;;
74309;SDS011;62722;51.142;17.052;2023-03-23T12:28:04;2.75;;;1.45;;
74309;SDS011;62722;51.142;17.052;2023-03-23T12:30:44;4.55;;;1.80;;
74309;SDS011;62722;51.142;17.052;2023-03-23T12:33:21;2.88;;;1.25;;
74309;SDS011;62722;51.142;17.052;2023-03-23T12:35:59;3.30;;;1.40;;
74309;SDS011;62722;51.142;17.052;2023-03-23T12:41:41;6.00;;;1.73;;
74309;SDS011;62722;51.142;17.052;2023-03-23T12:44:14;2.78;;;1.45;;
74309;SDS011;62722;51.142;17.052;2023-03-23T12:46:53;5.13;;;1.30;;
74309;SDS011;62722;51.142;17.052;2023-03-23T12:49:31;2.90;;;1.67;;
74309;SDS011;62722;51.142;17.052;2023-03-23T12:52:04;3.88;;;1.52;;
74309;SDS011;62722;51.142;17.052;2023-03-23T12:54:41;5.13;;;2.00;;
74309;SDS011;62722;51.142;17.052;2023-03-23T12:57:18;4.75;;;1.70;;
74309;SDS011;62722;51.142;17.052;2023-03-23T12:59:50;3.55;;;1.50;;
74309;SDS011;62722;51.142;17.052;2023-03-23T13:02:24;2.95;;;1.88;;
74309;SDS011;62722;51.142;17.052;2023-03-23T13:04:56;3.35;;;1.60;;
74309;SDS011;62722;51.142;17.052;2023-03-23T13:07:29;4.95;;;1.67;;
74309;SDS011;62722;51.142;17.052;2023-03-23T13:10:03;3.35;;;1.60;;
74309;SDS011;62722;51.142;17.052;2023-03-23T13:12:35;2.95;;;1.60;;
74309;SDS011;62722;51.142;17.052;2023-03-23T13:15:09;3.50;;;1.75;;
74309;SDS011;62722;51.142;17.052;2023-03-23T13:17:47;3.65;;;1.60;;
74309;SDS011;62722;51.142;17.052;2023-03-23T13:20:38;5.32;;;1.58;;
74309;SDS011;62722;51.142;17.052;2023-03-23T13:23:19;4.55;;;1.80;;
74309;SDS011;62722;51.142;17.052;2023-03-23T13:25:51;3.75;;;1.58;;
74309;SDS011;62722;51.142;17.052;2023-03-23T13:28:24;2.97;;;1.48;;
74309;SDS011;62722;51.142;17.052;2023-03-23T13:33:28;2.92;;;1.42;;
74309;SDS011;62722;51.142;17.052;2023-03-23T13:35:57;2.97;;;1.70;;
74309;SDS011;62722;51.142;17.052;2023-03-23T13:38:32;3.30;;;1.63;;
74309;SDS011;62722;51.142;17.052;2023-03-23T13:41:07;3.58;;;1.88;;
74309;SDS011;62722;51.142;17.052;2023-03-23T13:43:37;4.78;;;2.00;;
74309;SDS011;62722;51.142;17.052;2023-03-23T13:46:08;4.95;;;2.15;;
74309;SDS011;62722;51.142;17.052;2023-03-23T13:48:44;3.35;;;1.90;;
74309;SDS011;62722;51.142;17.052;2023-03-23T13:51:24;3.00;;;2.00;;
74309;SDS011;62722;51.142;17.052;2023-03-23T13:54:04;3.65;;;1.75;;
74309;SDS011;62722;51.142;17.052;2023-03-23T13:56:39;3.25;;;1.83;;
74309;SDS011;62722;51.142;17.052;2023-03-23T13:59:12;2.83;;;1.90;;
74309;SDS011;62722;51.142;17.052;2023-03-23T14:01:41;3.40;;;1.92;;
74309;SDS011;62722;51.142;17.052;2023-03-23T14:04:10;4.18;;;1.60;;
74309;SDS011;62722;51.142;17.052;2023-03-23T14:06:40;3.88;;;1.80;;
74309;SDS011;62722;51.142;17.052;2023-03-23T14:09:10;4.10;;;1.58;;
74309;SDS011;62722;51.142;17.052;2023-03-23T14:11:47;3.88;;;1.67;;
74309;SDS011;62722;51.142;17.052;2023-03-23T14:14:21;4.28;;;2.00;;
74309;SDS011;62722;51.142;17.052;2023-03-23T14:16:54;4.53;;;2.08;;
74309;SDS011;62722;51.142;17.052;2023-03-23T14:19:33;3.40;;;2.10;;
74309;SDS011;62722;51.142;17.052;2023-03-23T14:22:14;5.03;;;1.77;;
74309;SDS011;62722;51.142;17.052;2023-03-23T14:24:45;4.78;;;1.98;;
74309;SDS011;62722;51.142;17.052;2023-03-23T14:27:14;2.75;;;1.60;;
74309;SDS011;62722;51.142;17.052;2023-03-23T14:29:43;4.82;;;2.10;;
74309;SDS011;62722;51.142;17.052;2023-03-23T14:32:12;4.28;;;2.00;;
74309;SDS011;62722;51.142;17.052;2023-03-23T14:34:42;4.63;;;2.00;;
74309;SDS011;62722;51.142;17.052;2023-03-23T14:37:13;6.07;;;2.40;;
74309;SDS011;62722;51.142;17.052;2023-03-23T14:39:44;3.90;;;1.83;;
74309;SDS011;62722;51.142;17.052;2023-03-23T14:42:15;4.38;;;2.20;;
74309;SDS011;62722;51.142;17.052;2023-03-23T14:44:44;5.90;;;2.03;;
74309;SDS011;62722;51.142;17.052;2023-03-23T14:47:16;3.75;;;1.92;;
74309;SDS011;62722;51.142;17.052;2023-03-23T14:49:52;4.07;;;1.92;;
74309;SDS011;62722;51.142;17.052;2023-03-23T14:52:21;3.33;;;2.00;;
74309;SDS011;62722;51.142;17.052;2023-03-23T14:54:50;4.55;;;1.90;;
74309;SDS011;62722;51.142;17.052;2023-03-23T14:57:19;3.88;;;2.15;;
74309;SDS011;62722;51.142;17.052;2023-03-23T14:59:53;3.80;;;2.00;;
74309;SDS011;62722;51.142;17.052;2023-03-23T15:02:22;4.57;;;2.00;;
74309;SDS011;62722;51.142;17.052;2023-03-23T15:04:53;6.00;;;2.10;;
74309;SDS011;62722;51.142;17.052;2023-03-23T15:07:23;4.22;;;2.13;;
74309;SDS011;62722;51.142;17.052;2023-03-23T15:09:56;4.18;;;2.13;;